sensor_id;sensor_type;location;lat;lon;timestamp;P1;durP1;ratioP1;P2;durP2;ratioP2
43861;SDS011;29510;52.140;5.034;2022-11-20T00:07:30;5.38;;;3.85;;
43861;SDS011;29510;52.140;5.034;2022-11-20T00:17:31;9.73;;;4.55;;
43861;SDS011;29510;52.140;5.034;2022-11-20T00:27:32;7.97;;;3.88;;
43861;SDS011;29510;52.140;5.034;2022-11-20T00:37:33;7.63;;;3.80;;
43861;SDS011;29510;52.140;5.034;2022-11-20T00:47:34;7.25;;;3.95;;
43861;SDS011;29510;52.140;5.034;2022-11-20T00:57:35;6.38;;;4.03;;
43861;SDS011;29510;52.140;5.034;2022-11-20T01:07:36;4.65;;;2.83;;
43861;SDS011;29510;52.140;5.034;2022-11-20T01:17:37;8.70;;;3.75;;
43861;SDS011;29510;52.140;5.034;2022-11-20T01:27:38;10.50;;;4.38;;
43861;SDS011;29510;52.140;5.034;2022-11-20T01:37:39;7.53;;;3.03;;
43861;SDS011;29510;52.140;5.034;2022-11-20T01:47:42;7.78;;;3.15;;
43861;SDS011;29510;52.140;5.034;2022-11-20T01:57:45;6.22;;;3.47;;
43861;SDS011;29510;52.140;5.034;2022-11-20T02:07:49;10.15;;;4.28;;
43861;SDS011;29510;52.140;5.034;2022-11-20T02:17:50;8.85;;;3.80;;
43861;SDS011;29510;52.140;5.034;2022-11-20T02:27:51;5.68;;;3.35;;
43861;SDS011;29510;52.140;5.034;2022-11-20T02:37:53;9.73;;;4.38;;
43861;SDS011;29510;52.140;5.034;2022-11-20T02:47:56;6.60;;;3.53;;
43861;SDS011;29510;52.140;5.034;2022-11-20T02:57:57;7.97;;;4.22;;
43861;SDS011;29510;52.140;5.034;2022-11-20T03:07:58;8.57;;;4.38;;
43861;SDS011;29510;52.140;5.034;2022-11-20T03:17:59;8.48;;;4.20;;
43861;SDS011;29510;52.140;5.034;2022-11-20T03:28:00;8.35;;;3.72;;
43861;SDS011;29510;52.140;5.034;2022-11-20T03:38:01;9.63;;;4.88;;
43861;SDS011;29510;52.140;5.034;2022-11-20T03:48:02;8.18;;;4.50;;
43861;SDS011;29510;52.140;5.034;2022-11-20T03:58:03;7.63;;;3.65;;
43861;SDS011;29510;52.140;5.034;2022-11-20T04:08:04;6.95;;;3.60;;
43861;SDS011;29510;52.140;5.034;2022-11-20T04:18:06;9.32;;;4.18;;
43861;SDS011;29510;52.140;5.034;2022-11-20T04:28:07;7.47;;;3.90;;
43861;SDS011;29510;52.140;5.034;2022-11-20T04:38:08;7.25;;;4.80;;
43861;SDS011;29510;52.140;5.034;2022-11-20T04:48:09;8.20;;;4.00;;
43861;SDS011;29510;52.140;5.034;2022-11-20T04:58:10;6.47;;;3.95;;
43861;SDS011;29510;52.140;5.034;2022-11-20T05:08:11;10.10;;;4.07;;
43861;SDS011;29510;52.140;5.034;2022-11-20T05:18:12;8.00;;;4.38;;
43861;SDS011;29510;52.140;5.034;2022-11-20T05:28:13;9.05;;;4.35;;
43861;SDS011;29510;52.140;5.034;2022-11-20T05:38:15;7.20;;;4.75;;
43861;SDS011;29510;52.140;5.034;2022-11-20T05:48:16;7.95;;;3.85;;
43861;SDS011;29510;52.140;5.034;2022-11-20T05:58:17;9.65;;;4.55;;
43861;SDS011;29510;52.140;5.034;2022-11-20T06:08:18;8.13;;;3.10;;
43861;SDS011;29510;52.140;5.034;2022-11-20T06:18:19;7.43;;;4.80;;
43861;SDS011;29510;52.140;5.034;2022-11-20T06:28:20;7.18;;;4.03;;
43861;SDS011;29510;52.140;5.034;2022-11-20T06:38:22;14.00;;;6.20;;
43861;SDS011;29510;52.140;5.034;2022-11-20T06:48:25;9.93;;;4.38;;
43861;SDS011;29510;52.140;5.034;2022-11-20T06:58:28;7.25;;;3.80;;
43861;SDS011;29510;52.140;5.034;2022-11-20T07:08:31;8.35;;;4.88;;
43861;SDS011;29510;52.140;5.034;2022-11-20T07:18:32;10.38;;;5.18;;
43861;SDS011;29510;52.140;5.034;2022-11-20T07:28:34;13.38;;;5.53;;
43861;SDS011;29510;52.140;5.034;2022-11-20T07:38:36;6.53;;;3.40;;
43861;SDS011;29510;52.140;5.034;2022-11-20T07:48:37;8.85;;;4.85;;
43861;SDS011;29510;52.140;5.034;2022-11-20T07:58:38;11.63;;;4.90;;
43861;SDS011;29510;52.140;5.034;2022-11-20T08:08:40;11.25;;;5.95;;
43861;SDS011;29510;52.140;5.034;2022-11-20T08:18:41;10.00;;;5.80;;
43861;SDS011;29510;52.140;5.034;2022-11-20T08:28:42;12.13;;;5.32;;
43861;SDS011;29510;52.140;5.034;2022-11-20T08:38:46;10.15;;;6.68;;
43861;SDS011;29510;52.140;5.034;2022-11-20T08:48:51;12.70;;;6.63;;
43861;SDS011;29510;52.140;5.034;2022-11-20T08:58:53;12.95;;;5.78;;
43861;SDS011;29510;52.140;5.034;2022-11-20T09:08:54;13.23;;;6.60;;
43861;SDS011;29510;52.140;5.034;2022-11-20T09:18:55;12.18;;;5.95;;
43861;SDS011;29510;52.140;5.034;2022-11-20T09:28:56;12.35;;;7.22;;
43861;SDS011;29510;52.140;5.034;2022-11-20T09:38:57;10.52;;;5.38;;
43861;SDS011;29510;52.140;5.034;2022-11-20T09:59:41;8.90;;;5.32;;
43861;SDS011;29510;52.140;5.034;2022-11-20T10:09:46;9.85;;;6.55;;
43861;SDS011;29510;52.140;5.034;2022-11-20T10:30:16;11.77;;;7.05;;
43861;SDS011;29510;52.140;5.034;2022-11-20T10:40:22;16.17;;;7.97;;
43861;SDS011;29510;52.140;5.034;2022-11-20T10:50:40;16.80;;;7.25;;
43861;SDS011;29510;52.140;5.034;2022-11-20T11:01:04;13.67;;;7.90;;
43861;SDS011;29510;52.140;5.034;2022-11-20T11:21:24;14.55;;;8.32;;
43861;SDS011;29510;52.140;5.034;2022-11-20T11:31:29;17.58;;;10.32;;
43861;SDS011;29510;52.140;5.034;2022-11-20T11:41:33;20.33;;;10.83;;
43861;SDS011;29510;52.140;5.034;2022-11-20T12:02:04;24.15;;;12.63;;
43861;SDS011;29510;52.140;5.034;2022-11-20T12:12:27;28.48;;;13.45;;
43861;SDS011;29510;52.140;5.034;2022-11-20T12:43:44;28.88;;;12.50;;
43861;SDS011;29510;52.140;5.034;2022-11-20T13:04:30;20.50;;;11.35;;
43861;SDS011;29510;52.140;5.034;2022-11-20T13:14:55;20.42;;;11.48;;
43861;SDS011;29510;52.140;5.034;2022-11-20T13:25:08;23.15;;;11.90;;
43861;SDS011;29510;52.140;5.034;2022-11-20T13:35:10;24.90;;;12.35;;
43861;SDS011;29510;52.140;5.034;2022-11-20T13:45:21;24.95;;;12.82;;
43861;SDS011;29510;52.140;5.034;2022-11-20T14:05:45;21.17;;;13.32;;
43861;SDS011;29510;52.140;5.034;2022-11-20T14:15:56;26.50;;;13.80;;
43861;SDS011;29510;52.140;5.034;2022-11-20T14:25:57;38.28;;;17.98;;
43861;SDS011;29510;52.140;5.034;2022-11-20T14:35:58;28.45;;;15.38;;
43861;SDS011;29510;52.140;5.034;2022-11-20T14:46:00;30.75;;;17.52;;
43861;SDS011;29510;52.140;5.034;2022-11-20T14:56:04;30.45;;;15.95;;
43861;SDS011;29510;52.140;5.034;2022-11-20T15:06:06;28.55;;;16.33;;
43861;SDS011;29510;52.140;5.034;2022-11-20T15:16:13;29.15;;;15.00;;
43861;SDS011;29510;52.140;5.034;2022-11-20T15:26:25;20.63;;;13.13;;
43861;SDS011;29510;52.140;5.034;2022-11-20T15:36:27;20.38;;;12.00;;
43861;SDS011;29510;52.140;5.034;2022-11-20T15:46:29;21.23;;;13.60;;
43861;SDS011;29510;52.140;5.034;2022-11-20T15:56:38;17.52;;;12.43;;
43861;SDS011;29510;52.140;5.034;2022-11-20T16:06:39;22.70;;;12.60;;
43861;SDS011;29510;52.140;5.034;2022-11-20T16:16:40;16.45;;;9.82;;
43861;SDS011;29510;52.140;5.034;2022-11-20T16:26:43;19.42;;;9.75;;
43861;SDS011;29510;52.140;5.034;2022-11-20T16:36:44;21.83;;;11.63;;
43861;SDS011;29510;52.140;5.034;2022-11-20T16:46:45;18.58;;;10.95;;
43861;SDS011;29510;52.140;5.034;2022-11-20T16:56:46;17.92;;;10.02;;
43861;SDS011;29510;52.140;5.034;2022-11-20T17:06:47;17.75;;;10.10;;
43861;SDS011;29510;52.140;5.034;2022-11-20T17:16:48;17.55;;;10.82;;
43861;SDS011;29510;52.140;5.034;2022-11-20T17:26:49;15.73;;;10.73;;
43861;SDS011;29510;52.140;5.034;2022-11-20T17:36:50;19.00;;;9.77;;
43861;SDS011;29510;52.140;5.034;2022-11-20T17:46:51;19.48;;;10.80;;
43861;SDS011;29510;52.140;5.034;2022-11-20T17:56:52;14.18;;;9.45;;
43861;SDS011;29510;52.140;5.034;2022-11-20T18:07:12;19.60;;;11.43;;
43861;SDS011;29510;52.140;5.034;2022-11-20T18:17:13;16.48;;;9.52;;
43861;SDS011;29510;52.140;5.034;2022-11-20T18:27:16;18.45;;;11.13;;
43861;SDS011;29510;52.140;5.034;2022-11-20T18:37:19;14.18;;;8.52;;
43861;SDS011;29510;52.140;5.034;2022-11-20T18:47:21;17.60;;;9.55;;
43861;SDS011;29510;52.140;5.034;2022-11-20T18:57:24;15.68;;;9.77;;
43861;SDS011;29510;52.140;5.034;2022-11-20T19:07:27;20.58;;;11.25;;
43861;SDS011;29510;52.140;5.034;2022-11-20T19:17:28;24.17;;;13.75;;
43861;SDS011;29510;52.140;5.034;2022-11-20T19:27:29;22.95;;;12.02;;
43861;SDS011;29510;52.140;5.034;2022-11-20T19:37:33;16.63;;;9.93;;
43861;SDS011;29510;52.140;5.034;2022-11-20T19:47:34;23.95;;;11.30;;
43861;SDS011;29510;52.140;5.034;2022-11-20T19:57:35;22.13;;;13.25;;
43861;SDS011;29510;52.140;5.034;2022-11-20T20:07:39;19.92;;;12.45;;
43861;SDS011;29510;52.140;5.034;2022-11-20T20:17:40;16.13;;;11.60;;
43861;SDS011;29510;52.140;5.034;2022-11-20T20:27:41;18.13;;;11.60;;
43861;SDS011;29510;52.140;5.034;2022-11-20T20:37:42;20.48;;;11.82;;
43861;SDS011;29510;52.140;5.034;2022-11-20T20:47:43;28.27;;;14.90;;
43861;SDS011;29510;52.140;5.034;2022-11-20T20:57:44;21.90;;;10.55;;
43861;SDS011;29510;52.140;5.034;2022-11-20T21:07:46;23.58;;;14.07;;
43861;SDS011;29510;52.140;5.034;2022-11-20T21:18:05;35.58;;;17.02;;
43861;SDS011;29510;52.140;5.034;2022-11-20T21:28:07;17.17;;;11.15;;
43861;SDS011;29510;52.140;5.034;2022-11-20T21:38:08;24.17;;;11.82;;
43861;SDS011;29510;52.140;5.034;2022-11-20T21:48:09;20.38;;;11.27;;
43861;SDS011;29510;52.140;5.034;2022-11-20T21:58:10;21.50;;;12.02;;
43861;SDS011;29510;52.140;5.034;2022-11-20T22:08:11;20.13;;;10.88;;
43861;SDS011;29510;52.140;5.034;2022-11-20T22:18:12;14.50;;;9.55;;
43861;SDS011;29510;52.140;5.034;2022-11-20T22:28:13;20.13;;;12.35;;
43861;SDS011;29510;52.140;5.034;2022-11-20T22:38:15;21.77;;;11.68;;
43861;SDS011;29510;52.140;5.034;2022-11-20T22:48:16;17.40;;;11.13;;
43861;SDS011;29510;52.140;5.034;2022-11-20T22:58:17;20.60;;;11.57;;
43861;SDS011;29510;52.140;5.034;2022-11-20T23:08:18;23.20;;;12.82;;
43861;SDS011;29510;52.140;5.034;2022-11-20T23:18:20;24.80;;;13.90;;
43861;SDS011;29510;52.140;5.034;2022-11-20T23:28:21;22.13;;;14.13;;
43861;SDS011;29510;52.140;5.034;2022-11-20T23:38:22;27.13;;;14.38;;
43861;SDS011;29510;52.140;5.034;2022-11-20T23:48:23;20.80;;;12.55;;
43861;SDS011;29510;52.140;5.034;2022-11-20T23:58:30;20.27;;;12.53;;
